Washington Mills, NY

3:37 PM EST on February 26, 2017 (GMT -0500)
Washington Mills | | Change Station
Active Advisory: Flood Warning

Elev 902 ft 43.04 °N, 75.25 °W | Updated 9 seconds ago

Overcast
Overcast
30.6 °F
Feels Like 27 °F
N
3.3
Wind Variable Wind from WNW
Gusts 4.6 mph

Today
High -- | Low -- °F
--% Chance of Precip.
Yesterday
High -- | Low -- °F
Precip. -- in
Pressure 30.06 in
Visibility 10.0 miles
Clouds Few 900 ft
Mostly Cloudy 3200 ft
Overcast 7000 ft
Windchill 27 °F
Dew Point 23 °F
Humidity 74%
Rainfall 0.00 in
Snow Depth Not available.
6:41 AM 5:46 PM
New Moon, 0% visible
METAR KRME 261953Z 28016KT 10SM FEW009 BKN032 OVC070 M01/M04 A3005 RMK AO2 SNE41 SLP179 P0000 T10061044
Pressure 30.06 in
Visibility 10.0 miles
Clouds Few 900 ft
Mostly Cloudy 3200 ft
Overcast 7000 ft
Windchill 27 °F
Dew Point 23 °F
Humidity 74%
Rainfall 0.00 in
Snow Depth Not available.
6:41 AM 5:46 PM
New Moon, 0% visible
METAR KRME 261953Z 28016KT 10SM FEW009 BKN032 OVC070 M01/M04 A3005 RMK AO2 SNE41 SLP179 P0000 T10061044

Get Your Daily Forecast Email!

Thanks for signing up!

Be on the lookout for a verification email in your inbox.

You'll start receiving the daily forecast at 8 AM.

×

10-Day Weather Forecast

Almanac

Astronomy

Feb. 26, 2017 Rise Set
Actual Time
Civil Twilight
Nautical Twilight
Astronomical Twilight
Moon
Length of Visible Light
Length of Day
Tomorrow will be .
, % of the Moon is Illuminated

Today's Extremes

State Highs State Lows

Community

WunderPhotos

Upload Photos

1,962,540 photos uploaded!

WunderBlog® & News

Nearby

Air Quality

  Air Quality AQ Index Pollutant
Not available.

Snow Depth

Station Depth Elevation

Earthquake Activity

City Distance Mag. Time & Date
Minimum magnitude displayed is 2.5.

Coastal Water Temperatures

Place Temperature

Stations

Nearby Weather Stations

Station Location Temp. Windchill Dew Point Humidity Wind Precip. Elev Updated Type
                   

Watches & Warnings

Flood Warning
Issued: 12:49 PM EST Feb. 26, 2017 – National Weather Service

The Flood Warning continues for
the Black River at Boonville
* until tonight.
* At 12 PM Sunday the stage was 9.4 feet and rising.
* Flood stage is 10.0 feet.
* Minor flooding is forecast.
* Forecast... the river is expected to rise above flood stage this
evening and crest near 10.0 feet this evening.
* Impact... at 10.0 feet... flood stage, widespread farmland flooding in
The Flats area. Several roads may be closed in Glenfield,
Martinsburg, and Lowville.


Lat... Lon 4392 7550 4394 7536 4378 7537 4348 7524
      4346 7534 4386 7559